Time;durP1;ratioP1;P1;durP2;ratioP2;P2;SDS_P1;SDS_P2;PMS_P1;PMS_P2;Temp;Humidity;BMP_temperature;BMP_pressure;BME280_temperature;BME280_humidity;BME280_pressure;Samples;Min_cycle;Max_cycle;Signal;HPM_P1;HPM_P2
2022/08/09 00:01:34;;;;;;;1.97;1.83;;;;;;;18.82;78.15;100771.44;5004038;28;20201;-75
2022/08/09 00:03:59;;;;;;;1.90;1.80;;;;;;;18.82;78.65;100774.91;5001784;28;20184;-76
2022/08/09 00:06:26;;;;;;;1.80;1.53;;;;;;;18.80;78.65;100776.72;4983265;28;20252;-77
2022/08/09 00:08:51;;;;;;;1.90;1.70;;;;;;;18.80;78.68;100770.63;5002604;28;20176;-75
2022/08/09 00:11:17;;;;;;;3.20;2.10;;;;;;;18.82;79.15;100774.03;4990220;28;20266;-76
2022/08/09 00:13:43;;;;;;;2.67;2.00;;;;;;;18.81;78.74;100778.44;4986633;28;20199;-76
2022/08/09 00:16:09;;;;;;;2.00;1.90;;;;;;;18.79;78.84;100776.78;5004295;28;20200;-76
2022/08/09 00:18:35;;;;;;;1.80;1.70;;;;;;;18.76;79.05;100772.50;5004383;28;20221;-77
2022/08/09 00:21:03;;;;;;;2.27;1.90;;;;;;;18.72;78.73;100777.00;5008380;28;20205;-75
2022/08/09 00:23:28;;;;;;;1.77;1.67;;;;;;;18.69;78.30;100773.63;5006033;28;20194;-75
2022/08/09 00:25:54;;;;;;;2.53;1.73;;;;;;;18.67;78.21;100771.06;5008641;28;20177;-75
2022/08/09 00:28:20;;;;;;;1.93;1.63;;;;;;;18.68;77.78;100774.56;5006255;28;20330;-77
2022/08/09 00:30:45;;;;;;;3.20;1.90;;;;;;;18.67;78.34;100775.47;4985997;28;20237;-76
2022/08/09 00:33:11;;;;;;;2.23;2.03;;;;;;;18.68;78.12;100774.56;5008494;28;20188;-76
2022/08/09 00:35:36;;;;;;;2.00;1.90;;;;;;;18.67;78.20;100771.06;5009501;28;20295;-77
2022/08/09 00:38:01;;;;;;;1.60;1.50;;;;;;;18.68;77.71;100772.78;5002860;28;20189;-76
2022/08/09 00:40:27;;;;;;;2.10;1.70;;;;;;;18.66;77.54;100771.13;5006026;28;20347;-76
2022/08/09 00:42:52;;;;;;;2.00;1.83;;;;;;;18.63;77.95;100771.22;5009224;28;20766;-76
2022/08/09 00:45:18;;;;;;;1.87;1.60;;;;;;;18.61;77.46;100773.03;5012664;28;20212;-75
2022/08/09 00:47:43;;;;;;;1.83;1.50;;;;;;;18.58;77.74;100768.78;4989131;28;20262;-76
2022/08/09 00:50:09;;;;;;;3.60;1.90;;;;;;;18.58;77.57;100772.22;5006975;28;20646;-76
2022/08/09 00:52:35;;;;;;;3.57;1.67;;;;;;;18.57;77.53;100772.28;5010426;28;20826;-78
2022/08/09 00:55:01;;;;;;;4.10;1.90;;;;;;;18.55;77.38;100780.19;5009295;28;20189;-75
2022/08/09 00:57:29;;;;;;;1.80;1.70;;;;;;;18.47;77.29;100777.00;5005651;28;20205;-75
2022/08/09 00:59:55;;;;;;;1.93;1.73;;;;;;;18.38;77.20;100782.53;5004381;28;20238;-76
2022/08/09 01:02:26;;;;;;;3.30;1.60;;;;;;;18.30;77.12;100772.34;5003158;28;20212;-76
2022/08/09 01:05:21;;;;;;;2.67;1.60;;;;;;;18.21;76.93;100786.59;5005940;28;20188;-76
2022/08/09 01:07:53;;;;;;;1.97;1.50;;;;;;;18.15;76.79;100789.41;5005680;28;20555;-76
2022/08/09 01:10:46;;;;;;;3.97;1.80;;;;;;;18.06;77.15;100784.47;5002681;28;20196;-76
2022/08/09 01:13:33;;;;;;;2.47;1.80;;;;;;;17.98;77.56;100780.31;5007048;28;20188;-76
2022/08/09 01:16:02;;;;;;;3.57;1.93;;;;;;;17.91;77.93;100786.66;5006132;28;20258;-76
2022/08/09 01:18:30;;;;;;;3.37;2.03;;;;;;;17.87;79.04;100787.63;5005990;28;20196;-76
2022/08/09 01:21:30;;;;;;;3.03;2.00;;;;;;;17.81;80.05;100788.69;5008410;28;20568;-76
2022/08/09 01:24:03;;;;;;;3.47;1.60;;;;;;;17.77;80.66;100786.22;4992878;28;20675;-76
2022/08/09 01:26:56;;;;;;;2.47;2.10;;;;;;;17.76;81.33;100785.34;4989726;28;20224;-77
2022/08/09 01:29:28;;;;;;;4.50;2.60;;;;;;;17.74;81.23;100787.16;5005169;28;20200;-76
2022/08/09 01:31:59;;;;;;;4.03;2.00;;;;;;;17.71;81.62;100789.03;4984239;28;20684;-75
2022/08/09 01:34:27;;;;;;;2.63;2.30;;;;;;;17.71;81.53;100795.09;5010655;28;20302;-77
2022/08/09 01:36:55;;;;;;;2.70;2.30;;;;;;;17.71;81.99;100791.63;5006269;28;20382;-77
2022/08/09 01:39:23;;;;;;;2.30;2.10;;;;;;;17.66;81.98;100794.41;5004499;28;20188;-76
2022/08/09 01:41:51;;;;;;;2.83;2.13;;;;;;;17.65;82.39;100795.31;5004265;28;21087;-78
2022/08/09 01:44:17;;;;;;;3.50;2.23;;;;;;;17.67;82.09;100791.72;5007035;28;20185;-76
2022/08/09 01:46:45;;;;;;;2.37;2.17;;;;;;;17.61;82.46;100797.16;5006867;28;20659;-76
2022/08/09 01:49:16;;;;;;;2.17;1.90;;;;;;;17.62;82.52;100808.47;5006790;28;20610;-76
2022/08/09 01:51:45;;;;;;;2.67;2.30;;;;;;;17.62;82.12;100804.09;5005996;28;20239;-75
2022/08/09 01:54:13;;;;;;;3.80;2.60;;;;;;;17.61;82.38;100801.53;5008724;28;20603;-75
2022/08/09 01:56:41;;;;;;;3.57;3.23;;;;;;;17.60;82.57;100800.69;5001905;28;20616;-76
2022/08/09 01:59:10;;;;;;;4.17;3.67;;;;;;;17.58;81.96;100806.84;5004336;28;20216;-76
2022/08/09 02:01:36;;;;;;;4.73;4.13;;;;;;;17.59;81.79;100808.56;5005114;28;20215;-75
2022/08/09 02:04:04;;;;;;;3.97;3.63;;;;;;;17.54;82.08;100803.47;5004872;28;20287;-76
2022/08/09 02:09:18;;;;;;;6.20;5.33;;;;;;;17.51;81.50;100811.41;5003350;28;20205;-76
2022/08/09 02:11:44;;;;;;;5.80;5.20;;;;;;;17.50;81.73;100809.69;5006169;28;20223;-76
2022/08/09 02:14:11;;;;;;;5.90;5.30;;;;;;;17.50;82.18;100810.56;5004929;28;20282;-77
2022/08/09 02:16:38;;;;;;;6.60;5.87;;;;;;;17.50;82.32;100812.31;5006720;28;20215;-78
2022/08/09 02:19:04;;;;;;;6.63;6.03;;;;;;;17.51;82.28;100817.50;5004697;28;20655;-77
2022/08/09 02:21:35;;;;;;;11.27;6.40;;;;;;;17.49;82.19;100821.06;5007686;28;20291;-77
2022/08/09 02:24:04;;;;;;;7.30;6.60;;;;;;;17.47;82.13;100820.28;5002926;28;20232;-76
2022/08/09 02:26:33;;;;;;;7.83;7.03;;;;;;;17.42;82.27;100815.16;4999766;28;20245;-75
2022/08/09 02:29:04;;;;;;;7.23;6.53;;;;;;;17.39;82.43;100822.22;4983077;28;20231;-76
2022/08/09 02:31:34;;;;;;;8.83;7.83;;;;;;;17.33;82.75;100823.28;5005290;28;20211;-76
2022/08/09 02:34:07;;;;;;;9.37;7.77;;;;;;;17.33;82.58;100821.50;5006330;28;20270;-80
2022/08/09 02:36:37;;;;;;;9.90;8.93;;;;;;;17.27;82.88;100820.81;4987049;28;20572;-77
2022/08/09 02:39:07;;;;;;;9.07;8.27;;;;;;;17.24;82.94;100823.53;4985617;28;20237;-77
2022/08/09 02:41:45;;;;;;;9.70;8.80;;;;;;;17.23;83.05;100817.44;5003805;28;20214;-76
2022/08/09 02:44:14;;;;;;;12.47;9.53;;;;;;;17.19;83.01;100821.03;5006518;28;20188;-76
2022/08/09 02:46:42;;;;;;;11.63;9.47;;;;;;;17.17;82.96;100812.38;5001968;28;20276;-77
2022/08/09 02:49:11;;;;;;;12.27;11.07;;;;;;;17.16;83.04;100815.91;5003402;28;20184;-77
2022/08/09 02:51:40;;;;;;;11.60;10.50;;;;;;;17.12;83.05;100819.50;5005592;28;20306;-76
2022/08/09 02:54:08;;;;;;;11.03;9.93;;;;;;;17.11;83.03;100818.63;5005383;28;20195;-75
2022/08/09 02:56:34;;;;;;;12.03;10.83;;;;;;;17.11;82.92;100818.63;4985661;28;20237;-75
2022/08/09 02:59:03;;;;;;;12.67;11.47;;;;;;;17.06;83.33;100824.00;4987282;28;20270;-76
2022/08/09 03:01:30;;;;;;;14.33;12.87;;;;;;;17.06;83.31;100824.00;5003695;28;20214;-77
2022/08/09 03:03:56;;;;;;;14.90;13.40;;;;;;;17.04;83.41;100828.41;5002800;28;21079;-75
2022/08/09 03:06:23;;;;;;;13.90;12.70;;;;;;;17.01;83.31;100825.03;4989144;28;20648;-75
2022/08/09 03:08:51;;;;;;;16.87;13.60;;;;;;;16.99;83.54;100819.84;5003886;28;20231;-77
2022/08/09 03:11:19;;;;;;;15.03;13.40;;;;;;;16.96;83.49;100822.53;5005875;28;20850;-76
2022/08/09 03:13:47;;;;;;;15.83;14.23;;;;;;;16.94;83.52;100823.47;4991339;28;20219;-77
2022/08/09 03:16:13;;;;;;;17.97;16.07;;;;;;;16.89;83.69;100823.56;5005528;28;20250;-76
2022/08/09 03:18:40;;;;;;;16.43;14.80;;;;;;;16.85;84.23;100819.34;4985968;28;20180;-76
2022/08/09 03:21:07;;;;;;;17.40;14.77;;;;;;;16.84;83.86;100820.22;5000836;28;20581;-76
2022/08/09 03:23:36;;;;;;;16.37;14.70;;;;;;;16.79;84.13;100820.31;5005289;28;20283;-76
2022/08/09 03:26:02;;;;;;;17.77;14.50;;;;;;;16.78;84.19;100816.03;5000837;28;20211;-78
2022/08/09 03:28:29;;;;;;;16.27;14.57;;;;;;;16.74;84.57;100817.84;5005038;28;20194;-77
2022/08/09 03:30:55;;;;;;;14.80;13.30;;;;;;;16.74;84.32;100819.59;4987252;28;20201;-75
2022/08/09 03:33:22;;;;;;;13.97;12.30;;;;;;;16.71;84.36;100823.13;5004864;28;20201;-75
2022/08/09 03:35:51;;;;;;;12.53;11.43;;;;;;;16.70;84.74;100829.28;5002833;28;20227;-75
2022/08/09 03:38:16;;;;;;;10.83;9.33;;;;;;;16.67;84.88;100831.97;5003934;28;20200;-77
2022/08/09 03:40:42;;;;;;;8.97;8.10;;;;;;;16.67;85.32;100828.50;5002723;28;20371;-75
2022/08/09 03:43:07;;;;;;;7.70;6.87;;;;;;;16.71;84.55;100825.75;4980667;28;20286;-76
2022/08/09 03:45:35;;;;;;;7.43;6.13;;;;;;;16.68;84.95;100828.47;5002128;28;20281;-77
2022/08/09 03:48:02;;;;;;;6.30;5.47;;;;;;;16.66;84.81;100827.66;4999402;28;20197;-77
2022/08/09 03:50:30;;;;;;;5.37;4.83;;;;;;;16.63;85.25;100834.72;5003498;28;20203;-76
2022/08/09 03:52:58;;;;;;;5.40;4.30;;;;;;;16.57;85.53;100835.69;4990236;28;20205;-76
2022/08/09 03:55:24;;;;;;;5.50;3.77;;;;;;;16.59;85.39;100841.75;5009994;28;20220;-76
2022/08/09 03:57:49;;;;;;;4.60;3.63;;;;;;;16.58;85.35;100826.97;5009628;28;20196;-76
2022/08/09 04:00:16;;;;;;;6.37;3.27;;;;;;;16.56;85.61;100839.25;5006892;28;20182;-76
2022/08/09 04:02:42;;;;;;;4.57;3.13;;;;;;;16.58;85.13;100834.81;5005267;28;20254;-77
2022/08/09 04:05:09;;;;;;;3.90;3.13;;;;;;;16.57;85.54;100836.56;5008277;28;20203;-76
2022/08/09 04:07:35;;;;;;;3.63;3.10;;;;;;;16.56;85.30;100839.25;5004127;28;20201;-76
2022/08/09 04:10:04;;;;;;;3.20;2.40;;;;;;;16.57;85.51;100846.16;5006563;28;20535;-77
2022/08/09 04:12:50;;;;;;;2.83;2.63;;;;;;;16.59;85.51;100845.22;4989901;28;20215;-79
2022/08/09 04:15:16;;;;;;;2.57;2.37;;;;;;;16.67;84.65;100855.50;5007846;28;20214;-78
2022/08/09 04:17:42;;;;;;;3.43;2.37;;;;;;;16.72;84.34;100853.59;5007835;28;20883;-76
2022/08/09 04:20:10;;;;;;;3.53;2.30;;;;;;;16.77;83.86;100853.50;5014683;28;20641;-77
2022/08/09 04:22:36;;;;;;;3.50;2.23;;;;;;;16.84;83.98;100854.22;5007995;28;20223;-76
2022/08/09 04:25:02;;;;;;;3.57;2.30;;;;;;;16.88;84.00;100855.81;5008793;28;20185;-76
2022/08/09 04:27:28;;;;;;;4.63;2.50;;;;;;;17.03;83.85;100860.69;5009804;28;20216;-76
2022/08/09 04:29:53;;;;;;;3.07;2.53;;;;;;;17.37;81.92;100865.00;4988920;28;20286;-76
2022/08/09 04:32:19;;;;;;;2.97;2.37;;;;;;;17.72;81.18;100869.25;4990414;28;20585;-76
2022/08/09 04:34:44;;;;;;;3.50;2.30;;;;;;;17.82;80.33;100874.19;5009469;28;20231;-77
2022/08/09 04:37:10;;;;;;;2.73;2.30;;;;;;;17.75;80.52;100875.25;5007756;28;20246;-76
2022/08/09 04:39:35;;;;;;;4.07;2.17;;;;;;;17.61;80.41;100874.81;5005835;28;20270;-76
2022/08/09 04:42:01;;;;;;;3.70;2.40;;;;;;;17.51;81.14;100882.94;5008370;28;20290;-76
2022/08/09 04:44:27;;;;;;;3.83;2.50;;;;;;;17.42;81.21;100885.78;5007979;28;20200;-76
2022/08/09 04:46:52;;;;;;;2.83;2.50;;;;;;;17.39;80.54;100879.78;5007827;28;20718;-76
2022/08/09 04:49:18;;;;;;;5.33;2.43;;;;;;;17.34;80.51;100886.00;5007105;28;20187;-78
2022/08/09 04:51:43;;;;;;;4.93;2.73;;;;;;;17.32;80.94;100894.81;4990193;28;20303;-78
2022/08/09 04:54:08;;;;;;;3.30;2.00;;;;;;;17.31;80.74;100888.72;5000976;28;20723;-76
2022/08/09 04:56:34;;;;;;;5.77;2.20;;;;;;;17.32;80.79;100898.25;5003650;28;20212;-77
2022/08/09 04:59:02;;;;;;;3.03;2.13;;;;;;;17.37;80.48;100901.63;5003645;28;20196;-76
2022/08/09 05:01:28;;;;;;;4.70;2.37;;;;;;;17.39;79.82;100898.09;5005774;28;20207;-75
2022/08/09 05:03:53;;;;;;;2.10;1.90;;;;;;;17.40;79.95;100895.44;5006122;28;20305;-76
2022/08/09 05:06:18;;;;;;;3.00;2.33;;;;;;;17.43;79.96;100897.13;4992497;28;20578;-76
2022/08/09 05:08:44;;;;;;;4.10;2.30;;;;;;;17.44;80.00;100904.91;5006783;28;20201;-78
2022/08/09 05:11:09;;;;;;;3.03;1.80;;;;;;;17.49;79.66;100902.16;5008468;28;20231;-77
2022/08/09 05:13:35;;;;;;;12.90;3.30;;;;;;;17.49;79.04;100905.66;5007321;28;20189;-77
2022/08/09 05:16:01;;;;;;;6.07;2.20;;;;;;;17.48;79.26;100906.56;4986978;28;20236;-77
2022/08/09 05:18:28;;;;;;;3.00;2.17;;;;;;;17.51;79.62;100903.00;5005967;28;20193;-77
2022/08/09 05:20:56;;;;;;;4.47;2.30;;;;;;;17.67;79.32;100903.44;4999971;28;20471;-77
2022/08/09 05:23:22;;;;;;;15.50;4.10;;;;;;;18.05;78.25;100905.84;5005338;28;20190;-77
2022/08/09 05:25:47;;;;;;;5.50;2.37;;;;;;;18.22;77.38;100908.81;4988287;28;20857;-77
2022/08/09 05:28:13;;;;;;;12.73;2.63;;;;;;;18.28;77.23;100907.75;5006288;28;20295;-78
2022/08/09 05:30:38;;;;;;;15.37;3.80;;;;;;;18.38;77.25;100910.94;5005194;28;20192;-76
2022/08/09 05:33:04;;;;;;;10.93;3.03;;;;;;;18.53;76.13;100909.59;5005825;28;20683;-77
2022/08/09 05:35:29;;;;;;;4.00;2.40;;;;;;;18.83;74.87;100917.34;5006943;28;20215;-76
2022/08/09 05:37:56;;;;;;;3.77;2.17;;;;;;;19.10;74.04;100918.22;5010339;28;20185;-76
2022/08/09 05:40:22;;;;;;;4.43;1.90;;;;;;;19.84;71.64;100906.81;5004410;28;20196;-75
2022/08/09 05:42:48;;;;;;;3.83;1.80;;;;;;;21.17;68.09;100911.19;5004606;28;20213;-76
2022/08/09 05:45:14;;;;;;;4.77;1.70;;;;;;;21.91;64.85;100913.16;5006433;28;20196;-77
2022/08/09 05:47:39;;;;;;;7.60;1.97;;;;;;;22.26;63.91;100920.31;4990597;28;20551;-76
2022/08/09 05:50:05;;;;;;;3.73;1.87;;;;;;;23.13;62.47;100924.00;5004411;28;20189;-75
2022/08/09 05:52:31;;;;;;;2.50;2.07;;;;;;;23.54;61.25;100912.19;4988684;28;20626;-76
2022/08/09 05:54:56;;;;;;;5.47;1.80;;;;;;;24.20;59.94;100919.16;5005718;28;20192;-78
2022/08/09 05:57:21;;;;;;;4.23;1.80;;;;;;;24.49;59.19;100921.97;5004848;28;20192;-78
2022/08/09 05:59:47;;;;;;;2.77;1.80;;;;;;;24.80;58.46;100932.59;4993307;28;20191;-77
2022/08/09 06:02:12;;;;;;;3.70;1.70;;;;;;;25.14;58.32;100927.94;5008356;28;20212;-77
2022/08/09 06:04:39;;;;;;;5.13;1.83;;;;;;;25.34;57.44;100921.41;5008389;28;20543;-76
2022/08/09 06:07:05;;;;;;;4.33;1.87;;;;;;;25.56;57.14;100920.13;4989252;28;20928;-76
2022/08/09 06:09:31;;;;;;;3.60;2.03;;;;;;;25.68;56.71;100927.31;5006094;28;20181;-75
2022/08/09 06:11:56;;;;;;;5.10;1.80;;;;;;;26.07;56.19;100931.97;4991824;28;20209;-75
2022/08/09 06:14:22;;;;;;;2.63;1.90;;;;;;;26.11;55.71;100929.06;5006964;28;20267;-76
2022/08/09 06:16:47;;;;;;;5.27;2.30;;;;;;;26.04;55.95;100935.69;5002328;28;20196;-75
2022/08/09 06:19:13;;;;;;;2.83;1.80;;;;;;;26.20;55.41;100932.06;4991621;28;20203;-77
2022/08/09 06:21:39;;;;;;;3.50;1.90;;;;;;;26.33;55.36;100927.66;5007738;28;20218;-76
2022/08/09 06:24:05;;;;;;;4.10;1.80;;;;;;;26.27;55.72;100928.06;5000236;28;20271;-77
2022/08/09 06:26:31;;;;;;;3.57;1.90;;;;;;;26.88;55.10;100936.44;4989459;28;20602;-76
2022/08/09 06:28:56;;;;;;;4.07;1.70;;;;;;;27.05;54.31;100934.44;5010925;28;20180;-76
2022/08/09 06:31:21;;;;;;;7.97;2.20;;;;;;;26.95;53.69;100928.03;5007930;28;20322;-77
2022/08/09 06:33:47;;;;;;;1.90;1.67;;;;;;;26.60;54.31;100927.66;5007204;28;20184;-76
2022/08/09 06:36:12;;;;;;;7.47;2.20;;;;;;;26.55;54.86;100931.53;5013252;28;20216;-76
2022/08/09 06:38:39;;;;;;;15.17;2.90;;;;;;;27.40;54.04;100939.09;4991561;28;20250;-76
2022/08/09 06:41:05;;;;;;;6.23;2.07;;;;;;;27.38;53.29;100930.38;5005207;28;20307;-77
2022/08/09 06:43:31;;;;;;;5.47;2.00;;;;;;;27.58;53.24;100929.03;5007763;28;20184;-77
2022/08/09 06:45:56;;;;;;;5.03;2.20;;;;;;;27.90;53.15;100931.22;4995333;28;20182;-75
2022/08/09 06:48:22;;;;;;;3.47;1.73;;;;;;;28.40;52.82;100930.28;5004677;28;20184;-75
2022/08/09 06:50:47;;;;;;;4.50;1.87;;;;;;;28.63;52.30;100938.38;4980399;28;20599;-79
2022/08/09 06:53:12;;;;;;;4.10;1.70;;;;;;;28.58;52.37;100934.22;5007051;28;20206;-76
2022/08/09 06:55:38;;;;;;;2.00;1.77;;;;;;;28.11;52.32;100935.94;5004465;28;20204;-76
2022/08/09 06:58:04;;;;;;;7.57;1.90;;;;;;;27.81;52.57;100935.38;5003518;28;20656;-76
2022/08/09 07:00:30;;;;;;;3.93;1.70;;;;;;;27.41;53.27;100935.50;4999871;28;20561;-76
2022/08/09 07:02:56;;;;;;;4.03;1.90;;;;;;;27.34;52.80;100940.38;5005787;28;20257;-76
2022/08/09 07:05:21;;;;;;;4.57;1.97;;;;;;;27.26;53.24;100950.72;5014161;28;22075;-76
2022/08/09 07:07:47;;;;;;;3.07;1.90;;;;;;;26.61;54.05;100945.28;5007453;28;20188;-77
2022/08/09 07:10:13;;;;;;;5.00;1.97;;;;;;;26.82;54.68;100939.50;4993169;28;20278;-76
2022/08/09 07:12:38;;;;;;;4.27;1.87;;;;;;;27.41;53.59;100942.63;4996965;28;20564;-76
2022/08/09 07:15:04;;;;;;;3.07;1.90;;;;;;;27.80;52.92;100940.78;4987255;28;20192;-76
2022/08/09 07:17:30;;;;;;;1.67;1.57;;;;;;;28.21;52.64;100946.75;5001324;28;20189;-77
2022/08/09 07:19:55;;;;;;;3.40;1.70;;;;;;;28.25;52.19;100940.25;5005186;28;20243;-76
2022/08/09 07:22:22;;;;;;;4.60;2.00;;;;;;;28.23;52.77;100940.34;5007042;28;20228;-77
2022/08/09 07:24:48;;;;;;;4.67;2.00;;;;;;;27.97;52.45;100939.59;5011310;28;20188;-77
2022/08/09 07:27:14;;;;;;;2.67;1.87;;;;;;;28.14;53.02;100943.72;5013910;28;20261;-78
2022/08/09 07:29:39;;;;;;;4.33;1.73;;;;;;;28.17;52.79;100946.16;5008596;28;20841;-78
2022/08/09 07:32:06;;;;;;;1.90;1.60;;;;;;;27.88;52.95;100950.88;5003214;28;20559;-77
2022/08/09 07:34:32;;;;;;;3.73;1.80;;;;;;;27.71;53.05;100944.13;4989908;28;20283;-78
2022/08/09 07:37:00;;;;;;;6.43;1.70;;;;;;;27.73;53.30;100945.69;5005937;28;20554;-77
2022/08/09 07:39:25;;;;;;;4.17;1.93;;;;;;;27.41;53.82;100956.75;5017661;28;20637;-77
2022/08/09 07:41:51;;;;;;;12.27;2.43;;;;;;;27.37;53.84;100949.97;4998980;28;20679;-77
2022/08/09 07:44:16;;;;;;;3.37;1.90;;;;;;;27.68;53.81;100945.19;5007044;28;20198;-78
2022/08/09 07:46:42;;;;;;;3.40;1.70;;;;;;;27.72;53.95;100949.31;5005729;28;20183;-78
2022/08/09 07:49:07;;;;;;;5.37;1.90;;;;;;;27.65;53.86;100951.56;5017045;28;20671;-79
2022/08/09 07:51:33;;;;;;;4.50;2.00;;;;;;;27.46;54.42;100954.66;4995085;28;20215;-80
2022/08/09 07:53:58;;;;;;;3.53;1.73;;;;;;;27.42;54.68;100957.63;5010487;28;20188;-77
2022/08/09 07:56:26;;;;;;;4.30;1.67;;;;;;;27.15;54.83;100951.44;5022396;28;20237;-78
2022/08/09 07:58:51;;;;;;;3.27;2.20;;;;;;;26.64;55.86;100957.50;5017321;28;20821;-77
2022/08/09 08:01:16;;;;;;;3.90;1.70;;;;;;;26.35;56.58;100952.31;5008197;28;20199;-77
2022/08/09 08:03:42;;;;;;;2.07;1.70;;;;;;;26.16;57.00;100948.19;4996700;28;20210;-79
2022/08/09 08:06:07;;;;;;;3.10;1.83;;;;;;;26.32;57.03;100953.34;5004242;28;20180;-76
2022/08/09 08:08:33;;;;;;;12.10;3.43;;;;;;;26.25;56.69;100948.53;4991389;28;20281;-77
2022/08/09 08:10:59;;;;;;;5.27;1.90;;;;;;;26.19;57.21;100952.44;5006464;28;20219;-77
2022/08/09 08:13:24;;;;;;;4.40;2.00;;;;;;;26.26;57.49;100950.22;4992686;28;20212;-77
2022/08/09 08:15:50;;;;;;;5.00;1.93;;;;;;;26.11;57.76;100958.22;5009049;28;20216;-77
2022/08/09 08:18:15;;;;;;;4.10;2.17;;;;;;;26.11;58.03;100952.91;4998126;28;20238;-77
2022/08/09 08:20:41;;;;;;;3.37;1.93;;;;;;;26.08;57.91;100947.81;4997500;28;20635;-77
2022/08/09 08:23:07;;;;;;;3.23;2.07;;;;;;;26.14;58.00;100952.72;5011485;28;20184;-77
2022/08/09 08:25:36;;;;;;;6.57;2.23;;;;;;;26.15;58.30;100956.25;5004666;28;20204;-76
2022/08/09 08:28:01;;;;;;;3.47;1.83;;;;;;;25.96;58.03;100951.22;5002623;28;20195;-78
2022/08/09 08:30:27;;;;;;;14.30;2.87;;;;;;;25.90;58.63;100944.50;4986504;28;20566;-77
2022/08/09 08:32:52;;;;;;;4.50;1.80;;;;;;;25.94;58.93;100948.69;5004453;28;20213;-78
2022/08/09 08:35:18;;;;;;;2.90;2.17;;;;;;;25.78;59.36;100950.59;4993813;28;20226;-77
2022/08/09 08:37:43;;;;;;;3.93;2.00;;;;;;;25.67;58.69;100959.19;5005219;28;21029;-76
2022/08/09 08:40:10;;;;;;;3.70;1.90;;;;;;;25.68;59.38;100948.53;5021158;28;20184;-76
2022/08/09 08:42:36;;;;;;;2.23;1.90;;;;;;;25.72;59.08;100960.63;5007310;28;20807;-76
2022/08/09 08:45:02;;;;;;;6.40;2.00;;;;;;;25.67;59.38;100957.41;4999053;28;20272;-75
2022/08/09 08:47:29;;;;;;;7.17;2.37;;;;;;;25.66;59.66;100953.06;5005996;28;20241;-77
2022/08/09 08:49:56;;;;;;;4.37;2.00;;;;;;;25.70;60.04;100956.38;5008726;28;20211;-76
2022/08/09 08:52:24;;;;;;;5.77;2.40;;;;;;;25.68;59.94;100950.31;5007653;28;20219;-76
2022/08/09 08:54:52;;;;;;;2.20;1.90;;;;;;;25.66;59.33;100958.38;5009419;28;20184;-76
2022/08/09 08:57:20;;;;;;;3.87;1.83;;;;;;;25.68;59.33;100955.59;5002428;28;20267;-76
2022/08/09 08:59:45;;;;;;;3.00;2.07;;;;;;;25.81;59.36;100958.34;5001324;28;20180;-77
2022/08/09 09:02:20;;;;;;;4.83;2.10;;;;;;;25.93;59.73;100952.28;4986176;28;20303;-77
2022/08/09 09:04:46;;;;;;;3.77;1.80;;;;;;;26.05;59.57;100950.66;5001453;28;20183;-76
2022/08/09 09:07:14;;;;;;;3.30;2.07;;;;;;;26.01;59.13;100950.00;5011972;28;20254;-77
2022/08/09 09:09:45;;;;;;;4.47;2.03;;;;;;;26.02;59.38;100949.03;5009365;28;20195;-77
2022/08/09 09:12:15;;;;;;;3.33;1.70;;;;;;;26.16;58.86;100950.00;5010602;28;20913;-76
2022/08/09 09:14:41;;;;;;;3.93;1.97;;;;;;;25.99;58.63;100956.34;5012676;28;20196;-76
2022/08/09 09:17:07;;;;;;;3.27;2.00;;;;;;;25.91;59.01;100951.50;5013882;28;20204;-77
2022/08/09 09:19:32;;;;;;;3.30;1.97;;;;;;;26.06;59.38;100954.13;5014462;28;21072;-76
2022/08/09 09:22:01;;;;;;;5.03;2.20;;;;;;;26.27;58.97;100950.16;5015721;28;20266;-77
2022/08/09 09:24:34;;;;;;;3.60;2.13;;;;;;;26.16;58.92;100947.34;4997867;28;20196;-76
2022/08/09 09:27:01;;;;;;;3.10;1.67;;;;;;;26.26;58.90;100937.84;5010433;28;20691;-77
2022/08/09 09:29:29;;;;;;;2.43;2.03;;;;;;;26.41;58.71;100937.78;5004148;28;20191;-76
2022/08/09 09:31:55;;;;;;;9.87;2.60;;;;;;;26.59;58.73;100939.22;5009173;28;20235;-77
2022/08/09 09:34:20;;;;;;;3.90;2.03;;;;;;;26.67;58.64;100938.72;5016272;28;20664;-79
2022/08/09 09:36:45;;;;;;;4.93;2.13;;;;;;;26.76;58.65;100929.28;5013855;28;20573;-76
2022/08/09 09:39:11;;;;;;;4.07;2.27;;;;;;;26.69;58.54;100947.44;5019079;28;20270;-76
2022/08/09 09:41:36;;;;;;;3.47;2.23;;;;;;;26.78;58.26;100930.00;5018767;28;20277;-77
2022/08/09 09:44:04;;;;;;;3.50;2.00;;;;;;;26.81;58.25;100935.16;5016862;28;20207;-77
2022/08/09 09:46:38;;;;;;;9.77;2.40;;;;;;;26.89;58.52;100927.53;5008380;28;20200;-77
2022/08/09 09:49:05;;;;;;;4.23;2.20;;;;;;;26.98;58.27;100936.69;4985859;28;20188;-79
2022/08/09 09:51:32;;;;;;;4.77;2.40;;;;;;;27.07;57.37;100935.19;5016213;28;20210;-75
2022/08/09 09:54:10;;;;;;;9.63;2.57;;;;;;;27.15;57.85;100927.53;5014523;28;20185;-76
2022/08/09 09:56:40;;;;;;;5.83;2.00;;;;;;;27.35;57.77;100927.97;5000903;28;20203;-76
2022/08/09 09:59:13;;;;;;;3.93;2.20;;;;;;;27.23;56.61;100924.34;5006368;28;20219;-76
2022/08/09 10:01:41;;;;;;;6.43;2.37;;;;;;;27.29;57.16;100918.63;5007704;28;20216;-76
2022/08/09 10:04:15;;;;;;;4.40;2.00;;;;;;;27.50;56.26;100915.44;5006609;28;20198;-76
2022/08/09 10:06:43;;;;;;;2.60;2.00;;;;;;;27.62;56.05;100922.53;4982343;28;20270;-77
2022/08/09 10:09:11;;;;;;;4.70;2.00;;;;;;;27.60;55.55;100913.84;5000727;28;20219;-78
2022/08/09 10:11:39;;;;;;;2.03;1.87;;;;;;;27.75;55.27;100908.38;5005250;28;20220;-76
2022/08/09 10:14:05;;;;;;;5.47;2.10;;;;;;;27.76;55.17;100912.72;4989966;28;20243;-78
2022/08/09 10:16:31;;;;;;;3.93;2.17;;;;;;;27.79;54.10;100904.50;5002510;28;20200;-77
2022/08/09 10:19:03;;;;;;;2.17;1.90;;;;;;;27.96;53.71;100898.00;5003907;28;20196;-77
2022/08/09 10:21:29;;;;;;;4.00;1.97;;;;;;;28.13;54.22;100897.59;4985587;28;20216;-78
2022/08/09 10:23:56;;;;;;;6.00;2.40;;;;;;;28.03;54.95;100896.56;4982963;28;20326;-77
2022/08/09 10:26:22;;;;;;;2.70;2.07;;;;;;;27.91;53.99;100910.78;5005866;28;20180;-77
2022/08/09 10:28:48;;;;;;;3.77;1.93;;;;;;;27.93;52.68;100890.22;5009456;28;20241;-77
2022/08/09 10:31:15;;;;;;;2.53;1.87;;;;;;;28.03;51.70;100893.91;4981419;28;20326;-77
2022/08/09 10:33:41;;;;;;;8.60;2.20;;;;;;;28.09;50.11;100909.47;5002776;28;20181;-76
2022/08/09 10:36:09;;;;;;;4.20;2.40;;;;;;;28.08;49.92;100905.06;5010016;28;20216;-76
2022/08/09 10:38:36;;;;;;;5.20;2.13;;;;;;;28.18;49.68;100894.63;4984533;28;20192;-77
2022/08/09 10:41:03;;;;;;;7.40;2.10;;;;;;;28.23;49.46;100895.13;4997614;28;20584;-76
2022/08/09 10:43:29;;;;;;;1.93;1.77;;;;;;;28.29;50.21;100910.66;4985717;28;20211;-77
2022/08/09 10:45:54;;;;;;;2.43;1.90;;;;;;;28.28;50.08;100910.78;5004060;28;20189;-77
2022/08/09 10:48:34;;;;;;;2.43;1.57;;;;;;;28.29;49.52;100896.47;5001930;28;20283;-77
2022/08/09 10:51:13;;;;;;;1.93;1.60;;;;;;;28.43;49.74;100895.44;5003988;28;20715;-76
2022/08/09 10:53:54;;;;;;;2.80;1.87;;;;;;;28.59;50.01;100898.66;4992926;28;20196;-75
2022/08/09 10:56:25;;;;;;;1.87;1.67;;;;;;;28.70;49.83;100895.19;5012108;28;20266;-76
2022/08/09 10:58:56;;;;;;;3.67;1.80;;;;;;;28.85;49.96;100903.00;5004252;28;20191;-76
2022/08/09 11:01:31;;;;;;;2.53;1.60;;;;;;;28.63;50.14;100907.25;4998794;28;20724;-77
2022/08/09 11:04:14;;;;;;;4.43;1.97;;;;;;;28.57;50.91;100910.41;5017980;28;20191;-77
2022/08/09 11:06:43;;;;;;;1.90;1.60;;;;;;;28.71;50.53;100894.22;5014785;28;20233;-76
2022/08/09 11:09:10;;;;;;;5.20;2.13;;;;;;;28.72;50.90;100903.03;5005718;28;20184;-77
2022/08/09 11:11:56;;;;;;;2.60;1.77;;;;;;;28.66;50.79;100904.38;4998721;28;20264;-76
2022/08/09 11:14:43;;;;;;;4.63;2.10;;;;;;;28.75;51.18;100902.84;4998889;28;20603;-77
2022/08/09 11:17:20;;;;;;;2.10;1.70;;;;;;;28.89;50.37;100889.31;5009333;28;20246;-77
2022/08/09 11:20:09;;;;;;;3.33;2.00;;;;;;;29.07;50.61;100893.31;5005468;28;20743;-76
2022/08/09 11:22:44;;;;;;;1.83;1.60;;;;;;;29.17;51.14;100889.00;5002672;28;20884;-75
2022/08/09 11:25:17;;;;;;;1.77;1.40;;;;;;;29.29;50.98;100881.81;5008172;28;20202;-77
2022/08/09 11:27:44;;;;;;;3.17;1.70;;;;;;;29.38;50.69;100881.16;4979277;28;20203;-75
2022/08/09 11:30:11;;;;;;;2.00;1.70;;;;;;;29.38;51.04;100874.94;5002365;28;20708;-78